createdAt,value
2019-04-21T00:00:45.647Z,11.30
2019-04-21T00:05:57.156Z,11.20
2019-04-21T00:10:59.370Z,10.90
2019-04-21T00:15:42.293Z,10.90
2019-04-21T00:20:39.625Z,10.90
2019-04-21T00:25:45.827Z,11.00
2019-04-21T00:30:50.495Z,10.70
2019-04-21T00:35:29.393Z,10.40
2019-04-21T00:40:52.107Z,10.50
2019-04-21T00:45:33.912Z,10.30
2019-04-21T00:51:01.689Z,10.20
2019-04-21T01:00:46.517Z,10.50
2019-04-21T01:05:52.752Z,10.70
2019-04-21T01:10:40.942Z,10.60
2019-04-21T01:16:56.068Z,10.70
2019-04-21T01:21:21.787Z,10.60
2019-04-21T01:26:31.087Z,10.10
2019-04-21T01:31:34.982Z,9.70
2019-04-21T01:36:32.883Z,9.50
2019-04-21T01:41:31.765Z,9.70
2019-04-21T01:46:25.616Z,9.60
2019-04-21T01:51:22.259Z,9.50
2019-04-21T01:56:51.351Z,9.50
2019-04-21T02:01:48.481Z,9.50
2019-04-21T02:06:54.356Z,9.60
2019-04-21T02:11:52.007Z,9.30
2019-04-21T02:16:40.443Z,9.20
2019-04-21T02:21:36.878Z,9.20
2019-04-21T02:26:41.599Z,9.30
2019-04-21T02:32:07.943Z,9.30
2019-04-21T02:41:51.219Z,9.10
2019-04-21T02:46:38.439Z,9.10
2019-04-21T02:56:34.482Z,9.20
2019-04-21T03:02:04.123Z,9.20
2019-04-21T03:12:24.618Z,9.00
2019-04-21T03:17:17.865Z,8.90
2019-04-21T03:22:12.226Z,8.60
2019-04-21T03:27:28.818Z,8.50
2019-04-21T03:37:13.609Z,8.50
2019-04-21T03:47:04.405Z,8.40
2019-04-21T03:51:59.330Z,8.50
2019-04-21T04:02:18.526Z,8.50
2019-04-21T04:12:26.334Z,8.10
2019-04-21T04:37:26.240Z,8.50
2019-04-21T04:47:56.527Z,8.40
2019-04-21T04:52:48.523Z,8.40
2019-04-21T04:58:59.533Z,8.40
2019-04-21T05:07:46.515Z,8.90
2019-04-21T05:12:38.821Z,8.90
2019-04-21T05:22:28.008Z,9.40
2019-04-21T05:27:51.664Z,9.30
2019-04-21T05:33:12.446Z,9.10
2019-04-21T05:38:12.822Z,9.20
2019-04-21T05:43:10.858Z,9.10
2019-04-21T05:48:37.709Z,9.10
2019-04-21T05:58:30.108Z,9.50
2019-04-21T06:03:30.700Z,9.40
2019-04-21T06:08:28.621Z,9.70
2019-04-21T06:13:26.820Z,10.10
2019-04-21T06:18:22.339Z,10.40
2019-04-21T06:23:20.283Z,10.70
2019-04-21T06:28:22.622Z,11.00
2019-04-21T06:33:08.091Z,11.10
2019-04-21T06:38:19.403Z,11.20
2019-04-21T06:43:20.952Z,11.40
2019-04-21T06:48:10.974Z,11.40
2019-04-21T06:53:12.036Z,11.60
2019-04-21T06:57:58.875Z,11.70
2019-04-21T07:03:11.406Z,11.90
2019-04-21T07:08:07.624Z,12.20
2019-04-21T07:12:51.026Z,12.50
2019-04-21T07:17:53.635Z,12.80
2019-04-21T07:22:50.885Z,13.20
2019-04-21T07:27:47.813Z,13.60
2019-04-21T07:32:51.555Z,13.90
2019-04-21T07:37:41.543Z,14.20
2019-04-21T07:42:32.870Z,14.70
2019-04-21T07:47:39.522Z,15.30
2019-04-21T07:52:55.367Z,15.90
2019-04-21T07:57:39.536Z,16.60
2019-04-21T08:12:36.323Z,17.40
2019-04-21T08:17:35.861Z,17.50
2019-04-21T08:22:32.087Z,17.90
2019-04-21T08:27:37.066Z,17.90
2019-04-21T08:32:36.438Z,17.50
2019-04-21T08:37:26.126Z,17.10
2019-04-21T08:42:25.708Z,17.10
2019-04-21T08:47:25.964Z,17.10
2019-04-21T08:52:36.778Z,17.10
2019-04-21T08:57:30.134Z,17.30
2019-04-21T09:28:36.737Z,18.70
2019-04-21T09:33:18.612Z,19.00
2019-04-21T09:38:26.486Z,19.00
2019-04-21T09:43:13.808Z,18.70
2019-04-21T09:48:13.870Z,18.60
2019-04-21T09:53:16.979Z,18.50
2019-04-21T09:59:32.109Z,18.50
2019-04-21T10:04:24.829Z,18.60
2019-04-21T10:09:22.223Z,18.80
2019-04-21T10:14:18.197Z,19.10
2019-04-21T10:19:15.010Z,19.50
2019-04-21T10:24:12.400Z,19.50
2019-04-21T10:29:16.337Z,19.90
2019-04-21T10:34:05.746Z,20.00
2019-04-21T10:39:02.332Z,19.90
2019-04-21T10:43:59.054Z,20.40
2019-04-21T10:48:56.883Z,20.90
2019-04-21T10:53:59.852Z,20.80
2019-04-21T10:58:56.436Z,21.00
2019-04-21T11:04:17.266Z,21.10
2019-04-21T11:09:11.851Z,21.00
2019-04-21T11:14:10.599Z,21.30
2019-04-21T11:19:07.907Z,21.50
2019-04-21T11:24:03.954Z,21.70
2019-04-21T11:29:01.111Z,21.80
2019-04-21T11:34:36.701Z,21.80
2019-04-21T11:40:07.411Z,21.80
2019-04-21T11:45:04.109Z,21.60
2019-04-21T11:50:33.248Z,21.20
2019-04-21T11:55:34.307Z,21.10
2019-04-21T12:00:30.018Z,21.20
2019-04-21T12:05:25.833Z,21.20
2019-04-21T12:10:21.749Z,21.00
2019-04-21T12:15:18.835Z,20.60
2019-04-21T12:20:15.065Z,20.40
2019-04-21T12:25:13.585Z,20.20
2019-04-21T12:30:13.568Z,20.10
2019-04-21T12:35:12.176Z,20.00
2019-04-21T12:40:10.524Z,20.10
2019-04-21T12:45:07.581Z,20.20
2019-04-21T12:50:04.588Z,20.30
2019-04-21T12:55:01.762Z,20.20
2019-04-21T12:59:57.667Z,20.30
2019-04-21T13:04:55.782Z,20.50
2019-04-21T13:09:52.616Z,20.40
2019-04-21T13:14:49.668Z,20.40
2019-04-21T13:19:47.294Z,20.40
2019-04-21T13:24:44.125Z,20.50
2019-04-21T13:29:40.058Z,20.60
2019-04-21T13:34:36.054Z,20.70
2019-04-21T13:40:13.171Z,20.80
2019-04-21T13:44:46.633Z,21.00
2019-04-21T13:49:45.360Z,21.10
2019-04-21T13:54:41.275Z,21.20
2019-04-21T13:59:38.438Z,21.40
2019-04-21T14:04:35.630Z,21.60
2019-04-21T14:09:46.787Z,21.80
2019-04-21T14:14:36.551Z,21.90
2019-04-21T14:19:33.207Z,22.00
2019-04-21T14:24:29.126Z,22.20
2019-04-21T14:29:25.748Z,22.40
2019-04-21T14:34:21.997Z,22.60
2019-04-21T14:39:18.568Z,22.70
2019-04-21T14:44:15.597Z,22.70
2019-04-21T14:49:19.468Z,22.70
2019-04-21T14:54:24.716Z,22.70
2019-04-21T14:59:21.359Z,22.70
2019-04-21T15:04:19.008Z,22.60
2019-04-21T15:09:15.448Z,22.60
2019-04-21T15:14:11.666Z,22.50
2019-04-21T15:19:08.627Z,22.40
2019-04-21T15:24:04.740Z,22.20
2019-04-21T15:29:00.440Z,22.10
2019-04-21T15:33:57.101Z,22.00
2019-04-21T15:38:54.070Z,22.00
2019-04-21T15:43:51.030Z,21.80
2019-04-21T15:48:46.820Z,21.70
2019-04-21T15:53:43.858Z,21.70
2019-04-21T15:59:14.721Z,21.60
2019-04-21T16:04:10.861Z,21.50
2019-04-21T16:09:16.148Z,21.30
2019-04-21T16:14:08.202Z,21.20
2019-04-21T16:19:04.040Z,21.10
2019-04-21T16:24:00.517Z,21.10
2019-04-21T16:28:57.417Z,21.10
2019-04-21T16:33:54.642Z,21.20
2019-04-21T16:38:51.458Z,21.20
2019-04-21T16:43:47.387Z,21.10
2019-04-21T16:48:44.141Z,21.20
2019-04-21T16:54:01.976Z,21.20
2019-04-21T16:59:16.657Z,21.20
2019-04-21T17:04:12.821Z,21.20
2019-04-21T17:09:10.618Z,21.10
2019-04-21T17:14:24.717Z,21.10
2019-04-21T17:19:14.511Z,20.80
2019-04-21T17:24:04.369Z,20.60
2019-04-21T17:29:00.676Z,20.40
2019-04-21T17:34:02.140Z,20.10
2019-04-21T17:38:54.302Z,19.90
2019-04-21T17:43:52.597Z,19.60
2019-04-21T17:48:49.309Z,19.30
2019-04-21T17:53:58.686Z,18.90
2019-04-21T17:59:17.686Z,18.60
2019-04-21T18:04:24.308Z,18.30
2019-04-21T18:09:15.360Z,18.20
2019-04-21T18:13:47.184Z,18.20
2019-04-21T18:18:44.242Z,18.20
2019-04-21T18:23:52.859Z,18.30
2019-04-21T18:28:44.375Z,18.10
2019-04-21T18:33:46.188Z,18.10
2019-04-21T18:39:34.249Z,18.00
2019-04-21T18:45:22.214Z,17.80
2019-04-21T18:49:42.686Z,17.50
2019-04-21T18:54:52.564Z,17.20
2019-04-21T18:59:39.392Z,16.90
2019-04-21T19:04:33.866Z,16.70
2019-04-21T19:24:41.117Z,15.90
2019-04-21T19:29:31.946Z,15.70
2019-04-21T19:34:23.783Z,15.60
2019-04-21T19:39:32.730Z,15.40
2019-04-21T19:44:26.238Z,15.20
2019-04-21T19:49:32.366Z,15.10
2019-04-21T19:54:18.704Z,15.00
2019-04-21T19:59:06.995Z,14.90
2019-04-21T20:04:04.538Z,14.80
2019-04-21T20:09:19.433Z,14.60
2019-04-21T20:14:44.839Z,14.50
2019-04-21T20:19:02.958Z,14.30
2019-04-21T20:24:06.090Z,14.10
2019-04-21T20:29:05.478Z,14.00
2019-04-21T20:34:16.065Z,14.00
2019-04-21T20:38:57.948Z,14.00
2019-04-21T20:44:06.187Z,13.90
2019-04-21T20:49:00.185Z,13.80
2019-04-21T20:53:53.819Z,13.60
2019-04-21T20:58:55.678Z,13.50
2019-04-21T21:03:51.772Z,13.50
2019-04-21T21:08:49.825Z,13.40
2019-04-21T21:13:53.712Z,13.30
2019-04-21T21:23:51.298Z,12.90
2019-04-21T21:28:40.254Z,13.00
2019-04-21T21:33:50.872Z,13.10
2019-04-21T21:38:39.283Z,12.90
2019-04-21T21:43:23.084Z,12.70
2019-04-21T21:48:31.854Z,12.50
2019-04-21T21:53:17.432Z,12.50
2019-04-21T21:58:12.365Z,12.50
2019-04-21T22:03:17.836Z,12.40
2019-04-21T22:08:06.826Z,12.20
2019-04-21T22:13:08.861Z,11.80
2019-04-21T22:18:19.504Z,11.90
2019-04-21T22:23:06.397Z,11.80
2019-04-21T22:27:55.691Z,11.90
2019-04-21T22:32:59.854Z,12.10
2019-04-21T22:38:02.065Z,11.90
2019-04-21T22:43:00.613Z,11.20
2019-04-21T22:47:46.523Z,11.00
2019-04-21T22:52:43.593Z,10.90
2019-04-21T22:57:46.009Z,11.00
2019-04-21T23:02:41.063Z,11.10
2019-04-21T23:07:48.477Z,11.10
2019-04-21T23:12:40.783Z,10.90
2019-04-21T23:17:54.296Z,11.00
2019-04-21T23:23:00.934Z,10.90
2019-04-21T23:27:52.586Z,10.90
2019-04-21T23:32:39.150Z,10.80
2019-04-21T23:37:27.398Z,10.50
2019-04-21T23:42:31.146Z,10.50
2019-04-21T23:47:36.912Z,10.50
2019-04-21T23:52:19.772Z,10.30
2019-04-21T23:57:26.226Z,10.30
